createdAt,value
2022-12-11T00:00:53.474Z,13.80
2022-12-11T00:01:55.332Z,12.97
2022-12-11T00:02:57.144Z,12.80
2022-12-11T00:03:58.904Z,13.52
2022-12-11T00:05:00.685Z,13.19
2022-12-11T00:06:02.495Z,12.48
2022-12-11T00:07:04.341Z,13.01
2022-12-11T00:08:06.214Z,12.22
2022-12-11T00:09:07.951Z,12.74
2022-12-11T00:10:09.864Z,12.52
2022-12-11T00:11:11.679Z,12.82
2022-12-11T00:12:13.539Z,12.42
2022-12-11T00:13:15.329Z,12.49
2022-12-11T00:14:17.117Z,12.74
2022-12-11T00:15:18.915Z,13.05
2022-12-11T00:16:26.564Z,13.00
2022-12-11T00:17:24.406Z,13.45
2022-12-11T00:18:26.230Z,13.82
2022-12-11T00:19:28.032Z,14.05
2022-12-11T00:20:29.831Z,13.96
2022-12-11T00:21:31.634Z,14.06
2022-12-11T00:22:33.495Z,13.67
2022-12-11T00:23:35.321Z,13.39
2022-12-11T00:24:37.131Z,13.59
2022-12-11T00:25:38.913Z,12.73
2022-12-11T00:26:40.735Z,13.11
2022-12-11T00:27:42.582Z,12.45
2022-12-11T00:28:44.368Z,12.31
2022-12-11T00:29:46.181Z,12.42
2022-12-11T00:30:48.165Z,12.01
2022-12-11T00:31:50.008Z,11.65
2022-12-11T00:32:51.824Z,12.52
2022-12-11T00:33:53.642Z,11.72
2022-12-11T00:34:55.448Z,12.49
2022-12-11T00:35:57.258Z,12.20
2022-12-11T00:36:59.277Z,12.15
2022-12-11T00:38:01.134Z,11.85
2022-12-11T00:39:02.936Z,11.22
2022-12-11T00:40:04.940Z,11.15
2022-12-11T00:41:06.738Z,12.08
2022-12-11T00:42:08.547Z,11.11
2022-12-11T00:43:10.396Z,12.74
2022-12-11T00:44:12.211Z,12.61
2022-12-11T00:45:14.007Z,12.88
2022-12-11T00:46:16.195Z,12.79
2022-12-11T00:47:18.035Z,12.37
2022-12-11T00:48:19.885Z,13.04
2022-12-11T00:49:21.690Z,12.22
2022-12-11T00:50:23.803Z,13.51
2022-12-11T00:51:25.612Z,12.39
2022-12-11T00:52:27.414Z,11.49
2022-12-11T00:53:29.267Z,12.37
2022-12-11T00:54:31.063Z,12.62
2022-12-11T00:55:32.878Z,12.19
2022-12-11T00:56:35.301Z,11.60
2022-12-11T00:57:37.162Z,12.43
2022-12-11T00:58:39.007Z,11.94
2022-12-11T00:59:40.817Z,13.31
2022-12-11T01:00:42.725Z,12.36
2022-12-11T01:01:44.581Z,12.22
2022-12-11T01:02:46.417Z,12.25
2022-12-11T01:03:48.312Z,12.85
2022-12-11T01:04:50.097Z,12.87
2022-12-11T01:05:51.917Z,11.94
2022-12-11T01:06:53.818Z,13.29
2022-12-11T01:07:55.714Z,13.42
2022-12-11T01:08:57.566Z,14.31
2022-12-11T01:09:59.375Z,14.76
2022-12-11T01:11:01.184Z,14.22
2022-12-11T01:12:02.990Z,13.46
2022-12-11T01:13:04.782Z,14.30
2022-12-11T01:14:06.649Z,13.28
2022-12-11T01:15:08.878Z,13.20
2022-12-11T01:16:10.968Z,13.35
2022-12-11T01:17:12.858Z,13.04
2022-12-11T01:18:14.656Z,13.01
2022-12-11T01:19:16.516Z,12.65
2022-12-11T01:20:18.439Z,12.33
2022-12-11T01:21:20.248Z,12.74
2022-12-11T01:22:22.046Z,12.37
2022-12-11T01:23:23.859Z,11.83
2022-12-11T01:24:25.722Z,11.69
2022-12-11T01:25:27.517Z,12.56
2022-12-11T01:26:29.420Z,12.94
2022-12-11T01:27:31.243Z,12.11
2022-12-11T01:28:33.044Z,12.95
2022-12-11T01:29:34.884Z,12.46
2022-12-11T01:30:36.850Z,12.53
2022-12-11T01:31:38.607Z,12.47
2022-12-11T01:32:40.554Z,12.09
2022-12-11T01:33:42.348Z,12.59
2022-12-11T01:34:44.202Z,12.08
2022-12-11T01:35:46.410Z,12.29
2022-12-11T01:36:48.530Z,12.71
2022-12-11T01:37:50.345Z,12.45
2022-12-11T01:38:52.156Z,12.03
2022-12-11T01:39:54.010Z,13.01
2022-12-11T01:40:55.920Z,12.21
2022-12-11T01:41:57.725Z,12.29
2022-12-11T01:42:59.540Z,12.81
2022-12-11T01:44:01.356Z,12.50
2022-12-11T01:45:05.049Z,13.09
2022-12-11T01:46:07.113Z,12.69
2022-12-11T01:47:08.906Z,12.08
2022-12-11T01:48:10.756Z,12.27
2022-12-11T01:49:12.562Z,11.51
2022-12-11T01:50:14.537Z,11.01
2022-12-11T01:51:16.350Z,11.15
2022-12-11T01:52:18.156Z,11.69
2022-12-11T01:53:19.976Z,11.39
2022-12-11T01:54:21.759Z,11.12
2022-12-11T01:55:23.614Z,11.56
2022-12-11T01:56:25.728Z,10.68
2022-12-11T01:57:27.528Z,11.51
2022-12-11T01:58:29.373Z,10.71
2022-12-11T01:59:31.126Z,11.48
2022-12-11T02:00:33.280Z,10.85
2022-12-11T02:01:35.125Z,10.93
2022-12-11T02:02:37.021Z,11.08
2022-12-11T02:03:38.811Z,12.19
2022-12-11T02:04:40.633Z,11.34
2022-12-11T02:05:42.466Z,10.36
2022-12-11T02:06:44.274Z,10.71
2022-12-11T02:07:46.125Z,11.31
2022-12-11T02:08:47.879Z,10.75
2022-12-11T02:09:49.689Z,11.11
2022-12-11T02:10:51.833Z,11.20
2022-12-11T02:11:53.656Z,11.06
2022-12-11T02:12:55.460Z,11.11
2022-12-11T02:13:57.266Z,10.79
2022-12-11T02:14:59.062Z,11.25
2022-12-11T02:16:00.965Z,10.63
2022-12-11T02:17:02.726Z,11.09
2022-12-11T02:18:04.536Z,11.56
2022-12-11T02:19:06.449Z,11.15
2022-12-11T02:20:08.568Z,12.05
2022-12-11T02:21:10.401Z,10.62
2022-12-11T02:22:12.212Z,11.82
2022-12-11T02:23:14.012Z,11.86
2022-12-11T02:24:15.841Z,12.22
2022-12-11T02:25:17.659Z,11.99
2022-12-11T02:26:19.496Z,11.91
2022-12-11T02:27:21.306Z,12.44
2022-12-11T02:28:23.101Z,12.18
2022-12-11T02:29:24.913Z,12.02
2022-12-11T02:30:26.832Z,11.89
2022-12-11T02:31:28.716Z,13.11
2022-12-11T02:32:30.453Z,12.45
2022-12-11T02:33:32.252Z,12.48
2022-12-11T02:34:34.077Z,12.48
2022-12-11T02:35:35.894Z,12.77
2022-12-11T02:36:37.831Z,13.39
2022-12-11T02:37:39.636Z,14.79
2022-12-11T02:38:41.446Z,14.51
2022-12-11T02:39:43.252Z,14.98
2022-12-11T02:40:45.268Z,15.41
2022-12-11T02:41:47.113Z,14.51
2022-12-11T02:42:48.923Z,14.78
2022-12-11T02:43:50.743Z,12.83
2022-12-11T02:44:52.516Z,12.79
2022-12-11T02:45:54.367Z,13.56
2022-12-11T02:46:56.301Z,13.18
2022-12-11T02:47:58.122Z,13.73
2022-12-11T02:48:59.923Z,12.93
2022-12-11T02:50:01.756Z,13.06
2022-12-11T02:51:03.568Z,12.61
2022-12-11T02:52:05.424Z,13.64
2022-12-11T02:53:07.241Z,13.24
2022-12-11T02:54:09.026Z,12.33
2022-12-11T02:55:11.125Z,13.66
2022-12-11T02:56:13.056Z,13.56
2022-12-11T02:57:14.876Z,12.69
2022-12-11T02:58:16.678Z,13.31
2022-12-11T02:59:18.504Z,12.47
2022-12-11T03:00:20.426Z,13.30
2022-12-11T03:01:22.290Z,12.14
2022-12-11T03:02:24.209Z,13.02
2022-12-11T03:03:25.979Z,13.33
2022-12-11T03:04:27.775Z,13.46
2022-12-11T03:05:29.588Z,12.76
2022-12-11T03:06:31.878Z,12.49
2022-12-11T03:07:33.708Z,13.01
2022-12-11T03:08:35.500Z,13.21
2022-12-11T03:09:37.294Z,13.27
2022-12-11T03:10:39.522Z,12.51
2022-12-11T03:11:41.332Z,12.11
2022-12-11T03:12:43.200Z,13.15
2022-12-11T03:13:45.002Z,12.01
2022-12-11T03:14:46.806Z,11.23
2022-12-11T03:15:48.602Z,11.99
2022-12-11T03:16:50.426Z,12.27
2022-12-11T03:17:52.242Z,12.89
2022-12-11T03:18:54.059Z,11.78
2022-12-11T03:19:55.876Z,12.64
2022-12-11T03:20:58.021Z,13.39
2022-12-11T03:21:59.835Z,12.95
2022-12-11T03:23:01.705Z,12.50
2022-12-11T03:24:03.503Z,11.49
2022-12-11T03:25:05.310Z,12.15
2022-12-11T03:26:07.529Z,13.53
2022-12-11T03:27:11.255Z,11.07
2022-12-11T03:28:12.970Z,12.68
2022-12-11T03:29:14.750Z,12.11
2022-12-11T03:30:16.661Z,12.38
2022-12-11T03:31:18.486Z,12.36
2022-12-11T03:32:20.301Z,12.23
2022-12-11T03:33:22.135Z,12.49
2022-12-11T03:34:23.958Z,12.89
2022-12-11T03:35:25.759Z,12.27
2022-12-11T03:36:27.604Z,12.57
2022-12-11T03:37:29.402Z,12.79
2022-12-11T03:38:31.249Z,13.14
2022-12-11T03:39:33.039Z,13.69
2022-12-11T03:40:34.941Z,13.63
2022-12-11T03:41:36.755Z,13.63
2022-12-11T03:42:38.587Z,14.54
2022-12-11T03:43:40.451Z,14.07
2022-12-11T03:44:42.291Z,14.17
2022-12-11T03:45:44.182Z,14.45
2022-12-11T03:46:46.049Z,15.02
2022-12-11T03:47:47.858Z,16.23
2022-12-11T03:48:49.710Z,16.43
2022-12-11T03:49:51.531Z,14.69
2022-12-11T03:50:53.335Z,15.61
2022-12-11T03:51:55.154Z,14.45
2022-12-11T03:52:56.956Z,14.01
2022-12-11T03:53:58.784Z,14.47
2022-12-11T03:55:00.585Z,14.44
2022-12-11T03:56:02.366Z,14.67
2022-12-11T03:57:04.186Z,13.95
2022-12-11T03:58:05.995Z,14.80
2022-12-11T03:59:07.828Z,14.01
2022-12-11T04:00:09.632Z,14.34
2022-12-11T04:01:11.760Z,14.45
2022-12-11T04:02:13.566Z,14.92
2022-12-11T04:03:15.368Z,15.31
2022-12-11T04:04:17.269Z,15.46
2022-12-11T04:05:19.091Z,15.88
2022-12-11T04:06:20.883Z,14.85
2022-12-11T04:07:22.713Z,15.47
2022-12-11T04:08:24.551Z,15.89
2022-12-11T04:09:26.373Z,15.56
2022-12-11T04:10:28.178Z,15.97
2022-12-11T04:11:29.998Z,15.70
2022-12-11T04:12:31.822Z,16.17
2022-12-11T04:13:33.628Z,17.10
2022-12-11T04:14:35.499Z,16.73
2022-12-11T04:15:37.355Z,16.68
2022-12-11T04:16:39.290Z,17.21
2022-12-11T04:17:41.092Z,16.33
2022-12-11T04:18:42.890Z,17.05
2022-12-11T04:19:44.730Z,15.86
2022-12-11T04:20:46.859Z,16.44
2022-12-11T04:21:48.678Z,16.47
2022-12-11T04:22:50.584Z,16.47
2022-12-11T04:23:52.386Z,16.19
2022-12-11T04:24:54.206Z,16.61
2022-12-11T04:25:55.998Z,16.70
2022-12-11T04:26:57.903Z,17.12
2022-12-11T04:27:59.699Z,16.53
2022-12-11T04:29:01.509Z,16.49
2022-12-11T04:30:03.455Z,15.86
2022-12-11T04:31:05.304Z,15.91
2022-12-11T04:32:07.061Z,16.33
2022-12-11T04:33:08.876Z,15.59
2022-12-11T04:34:10.695Z,16.04
2022-12-11T04:35:12.812Z,16.20
2022-12-11T04:36:14.869Z,15.85
2022-12-11T04:37:16.654Z,16.53
2022-12-11T04:38:18.502Z,15.83
2022-12-11T04:39:20.301Z,15.08
2022-12-11T04:40:22.214Z,15.92
2022-12-11T04:41:24.030Z,15.25
2022-12-11T04:42:25.845Z,15.39
2022-12-11T04:43:27.667Z,15.41
2022-12-11T04:44:29.490Z,14.91
2022-12-11T04:45:31.366Z,16.76
2022-12-11T04:46:33.323Z,15.89
2022-12-11T04:47:35.200Z,15.86
2022-12-11T04:48:37.016Z,14.69
2022-12-11T04:49:38.801Z,15.74
2022-12-11T04:50:40.744Z,14.27
2022-12-11T04:51:42.541Z,15.38
2022-12-11T04:52:44.343Z,15.36
2022-12-11T04:53:46.177Z,15.91
2022-12-11T04:54:47.975Z,17.57
2022-12-11T04:55:49.816Z,16.71
2022-12-11T04:56:51.732Z,17.59
2022-12-11T04:57:53.546Z,16.97
2022-12-11T04:58:55.337Z,17.34
2022-12-11T04:59:57.152Z,18.87
2022-12-11T05:00:59.401Z,19.73
2022-12-11T05:02:01.256Z,19.40
2022-12-11T05:03:03.074Z,19.94
2022-12-11T05:04:04.912Z,19.23
2022-12-11T05:05:06.733Z,18.57
2022-12-11T05:06:08.728Z,17.65
2022-12-11T05:07:10.539Z,16.86
2022-12-11T05:08:12.402Z,16.86
2022-12-11T05:09:14.329Z,16.79
2022-12-11T05:10:16.226Z,15.62
2022-12-11T05:11:18.060Z,16.54
2022-12-11T05:12:19.872Z,15.96
2022-12-11T05:13:21.688Z,20.54
2022-12-11T05:14:23.488Z,20.30
2022-12-11T05:15:25.302Z,17.98
2022-12-11T05:16:27.293Z,17.42
2022-12-11T05:17:29.077Z,15.99
2022-12-11T05:18:30.881Z,15.87
2022-12-11T05:19:32.679Z,16.06
2022-12-11T05:20:34.583Z,17.01
2022-12-11T05:21:36.444Z,17.25
2022-12-11T05:22:38.269Z,15.58
2022-12-11T05:23:40.059Z,15.93
2022-12-11T05:24:41.890Z,16.33
2022-12-11T05:25:43.702Z,15.31
2022-12-11T05:26:45.547Z,15.31
2022-12-11T05:27:47.358Z,15.64
2022-12-11T05:28:49.158Z,16.65
2022-12-11T05:29:54.823Z,15.89
2022-12-11T05:30:54.820Z,15.85
2022-12-11T05:31:56.660Z,16.29
2022-12-11T05:32:58.455Z,15.56
2022-12-11T05:34:00.261Z,16.50
2022-12-11T05:35:02.058Z,15.79
2022-12-11T05:36:03.875Z,17.11
2022-12-11T05:37:05.747Z,19.07
2022-12-11T05:38:07.532Z,19.41
2022-12-11T05:39:09.339Z,18.86
2022-12-11T05:40:12.067Z,19.22
2022-12-11T05:41:13.881Z,17.83
2022-12-11T05:42:15.729Z,17.00
2022-12-11T05:43:17.540Z,16.51
2022-12-11T05:44:19.342Z,16.57
2022-12-11T05:45:21.145Z,16.39
2022-12-11T05:46:23.097Z,15.50
2022-12-11T05:47:24.914Z,16.20
2022-12-11T05:48:26.719Z,15.87
2022-12-11T05:49:30.993Z,16.57
2022-12-11T05:50:32.136Z,16.38
2022-12-11T05:51:34.060Z,16.00
2022-12-11T05:52:35.894Z,17.06
2022-12-11T05:53:37.719Z,16.97
2022-12-11T05:54:39.515Z,17.03
2022-12-11T05:55:41.343Z,17.14
2022-12-11T05:56:43.464Z,17.23
2022-12-11T05:57:45.320Z,16.04
2022-12-11T05:58:47.122Z,15.82
2022-12-11T05:59:48.935Z,15.99
2022-12-11T06:00:51.050Z,15.83
2022-12-11T06:01:52.932Z,15.92
2022-12-11T06:02:54.914Z,15.99
2022-12-11T06:03:56.834Z,16.07
2022-12-11T06:04:58.622Z,15.74
2022-12-11T06:06:00.532Z,16.71
2022-12-11T06:07:02.351Z,16.22
2022-12-11T06:08:04.222Z,15.89
2022-12-11T06:09:05.997Z,16.15
2022-12-11T06:10:08.523Z,15.51
2022-12-11T06:11:10.435Z,15.34
2022-12-11T06:12:12.245Z,15.57
2022-12-11T06:13:14.106Z,16.36
2022-12-11T06:14:15.909Z,15.67
2022-12-11T06:15:17.809Z,17.30
2022-12-11T06:16:19.812Z,15.70
2022-12-11T06:17:21.649Z,15.81
2022-12-11T06:18:23.480Z,15.98
2022-12-11T06:19:25.282Z,16.17
2022-12-11T06:20:27.397Z,17.10
2022-12-11T06:21:29.190Z,17.21
2022-12-11T06:22:30.996Z,15.61
2022-12-11T06:23:32.843Z,16.11
2022-12-11T06:24:34.658Z,14.56
2022-12-11T06:25:36.453Z,14.91
2022-12-11T06:26:38.558Z,14.99
2022-12-11T06:27:40.468Z,14.90
2022-12-11T06:28:42.325Z,16.04
2022-12-11T06:29:44.129Z,15.69
2022-12-11T06:30:46.552Z,15.03
2022-12-11T06:31:48.393Z,15.23
2022-12-11T06:32:50.160Z,15.20
2022-12-11T06:33:52.005Z,14.84
2022-12-11T06:34:53.837Z,14.86
2022-12-11T06:35:55.640Z,15.91
2022-12-11T06:36:58.055Z,15.70
2022-12-11T06:37:59.851Z,15.04
2022-12-11T06:39:01.707Z,15.27
2022-12-11T06:40:03.627Z,16.00
2022-12-11T06:41:05.424Z,16.96
2022-12-11T06:42:07.247Z,15.71
2022-12-11T06:43:09.052Z,15.33
2022-12-11T06:44:10.903Z,16.32
2022-12-11T06:45:13.015Z,15.47
2022-12-11T06:46:14.980Z,15.33
2022-12-11T06:47:16.831Z,15.71
2022-12-11T06:48:18.626Z,16.12
2022-12-11T06:49:20.483Z,16.07
2022-12-11T06:50:22.594Z,15.59
2022-12-11T06:51:24.394Z,16.32
2022-12-11T06:52:26.204Z,15.40
2022-12-11T06:53:28.021Z,15.36
2022-12-11T06:54:29.871Z,15.31
2022-12-11T06:55:31.681Z,14.89
2022-12-11T06:56:33.786Z,15.60
2022-12-11T06:57:35.624Z,16.05
2022-12-11T06:58:37.426Z,14.88
2022-12-11T06:59:39.262Z,15.23
2022-12-11T07:00:41.408Z,15.63
2022-12-11T07:01:43.181Z,14.87
2022-12-11T07:02:44.991Z,15.29
2022-12-11T07:03:46.786Z,15.80
2022-12-11T07:04:53.458Z,15.54
2022-12-11T07:05:52.262Z,15.76
2022-12-11T07:06:54.789Z,16.01
2022-12-11T07:07:56.707Z,14.93
2022-12-11T07:08:58.517Z,15.50
2022-12-11T07:10:05.948Z,15.11
2022-12-11T07:11:03.924Z,14.78
2022-12-11T07:12:05.727Z,15.75
2022-12-11T07:13:07.610Z,15.41
2022-12-11T07:14:09.395Z,14.93
2022-12-11T07:15:11.544Z,14.54
2022-12-11T07:16:13.553Z,14.85
2022-12-11T07:17:15.356Z,15.29
2022-12-11T07:18:17.174Z,15.20
2022-12-11T07:19:18.984Z,14.05
2022-12-11T07:20:20.827Z,14.73
2022-12-11T07:21:22.646Z,15.23
2022-12-11T07:22:24.459Z,15.51
2022-12-11T07:23:26.237Z,14.49
2022-12-11T07:24:28.029Z,14.03
2022-12-11T07:25:29.890Z,17.61
2022-12-11T07:26:32.111Z,14.97
2022-12-11T07:27:33.914Z,14.89
2022-12-11T07:28:35.779Z,15.59
2022-12-11T07:29:37.601Z,13.83
2022-12-11T07:30:39.440Z,13.74
2022-12-11T07:31:41.279Z,13.35
2022-12-11T07:32:43.151Z,13.79
2022-12-11T07:33:44.974Z,14.03
2022-12-11T07:34:51.588Z,13.49
2022-12-11T07:35:50.432Z,13.62
2022-12-11T07:36:52.336Z,15.76
2022-12-11T07:37:54.148Z,19.55
2022-12-11T07:38:55.980Z,14.15
2022-12-11T07:39:57.804Z,14.50
2022-12-11T07:40:59.771Z,14.19
2022-12-11T07:42:01.579Z,14.09
2022-12-11T07:43:03.377Z,14.80
2022-12-11T07:44:06.231Z,14.40
2022-12-11T07:45:08.268Z,13.83
2022-12-11T07:46:10.436Z,15.74
2022-12-11T07:47:12.197Z,15.18
2022-12-11T07:48:13.992Z,15.77
2022-12-11T07:49:15.779Z,16.25
2022-12-11T07:50:17.685Z,18.59
2022-12-11T07:51:19.566Z,25.04
2022-12-11T07:52:21.373Z,22.56
2022-12-11T07:53:23.176Z,22.65
2022-12-11T07:54:25.008Z,19.63
2022-12-11T07:55:26.813Z,16.40
2022-12-11T07:56:28.942Z,16.59
2022-12-11T07:57:30.755Z,16.28
2022-12-11T07:58:32.537Z,17.50
2022-12-11T07:59:34.384Z,16.79
2022-12-11T08:00:36.994Z,18.33
2022-12-11T08:01:38.909Z,15.37
2022-12-11T08:02:40.807Z,15.71
2022-12-11T08:03:42.548Z,16.01
2022-12-11T08:04:44.344Z,14.77
2022-12-11T08:05:46.115Z,15.17
2022-12-11T08:06:48.062Z,15.15
2022-12-11T08:07:49.905Z,14.79
2022-12-11T08:08:52.067Z,16.73
2022-12-11T08:09:53.858Z,17.23
2022-12-11T08:10:56.077Z,15.63
2022-12-11T08:11:57.925Z,13.49
2022-12-11T08:12:59.708Z,15.69
2022-12-11T08:14:01.415Z,14.22
2022-12-11T08:15:03.304Z,13.12
2022-12-11T08:16:05.270Z,13.84
2022-12-11T08:17:07.155Z,14.71
2022-12-11T08:18:08.908Z,14.34
2022-12-11T08:19:10.717Z,15.32
2022-12-11T08:20:12.802Z,16.13
2022-12-11T08:21:14.528Z,15.23
2022-12-11T08:22:16.378Z,14.57
2022-12-11T08:23:18.181Z,14.14
2022-12-11T08:24:19.966Z,13.77
2022-12-11T08:25:21.784Z,27.59
2022-12-11T08:26:23.696Z,18.21
2022-12-11T08:27:25.545Z,15.54
2022-12-11T08:28:27.483Z,17.14
2022-12-11T08:29:29.246Z,18.71
2022-12-11T08:30:31.151Z,15.65
2022-12-11T08:31:33.037Z,15.53
2022-12-11T08:32:34.887Z,15.49
2022-12-11T08:33:36.662Z,16.76
2022-12-11T08:34:40.646Z,17.25
2022-12-11T08:35:42.398Z,15.91
2022-12-11T08:36:44.482Z,16.26
2022-12-11T08:37:46.335Z,15.45
2022-12-11T08:38:48.143Z,16.56
2022-12-11T08:39:49.927Z,15.32
2022-12-11T08:40:51.884Z,13.72
2022-12-11T08:41:53.700Z,14.07
2022-12-11T08:42:55.581Z,15.04
2022-12-11T08:43:57.393Z,14.46
2022-12-11T08:44:59.176Z,13.19
2022-12-11T08:46:01.053Z,14.15
2022-12-11T08:47:02.912Z,12.81
2022-12-11T08:48:06.088Z,13.06
2022-12-11T08:49:09.002Z,15.17
2022-12-11T08:50:11.949Z,13.71
2022-12-11T08:51:13.739Z,16.76
2022-12-11T08:52:16.700Z,15.95
2022-12-11T08:53:18.584Z,15.72
2022-12-11T08:54:20.389Z,15.56
2022-12-11T08:55:22.218Z,14.65
2022-12-11T08:56:24.040Z,13.63
2022-12-11T08:57:25.864Z,14.80
2022-12-11T08:58:27.700Z,14.32
2022-12-11T08:59:29.526Z,13.07
2022-12-11T09:00:33.143Z,14.16
2022-12-11T09:01:35.042Z,14.67
2022-12-11T09:02:36.809Z,14.36
2022-12-11T09:03:38.637Z,14.96
2022-12-11T09:04:40.432Z,12.98
2022-12-11T09:05:42.255Z,12.65
2022-12-11T09:06:44.381Z,12.53
2022-12-11T09:07:46.274Z,11.99
2022-12-11T09:08:52.152Z,12.90
2022-12-11T09:09:51.792Z,13.61
2022-12-11T09:10:53.686Z,13.33
2022-12-11T09:11:55.494Z,13.30
2022-12-11T09:12:57.309Z,12.96
2022-12-11T09:14:05.210Z,12.23
2022-12-11T09:15:02.798Z,12.68
2022-12-11T09:16:04.734Z,12.73
2022-12-11T09:17:06.484Z,13.32
2022-12-11T09:18:08.313Z,13.50
2022-12-11T09:19:10.160Z,14.41
2022-12-11T09:20:12.260Z,15.25
2022-12-11T09:21:13.964Z,12.15
2022-12-11T09:22:15.698Z,13.03
2022-12-11T09:23:17.508Z,12.85
2022-12-11T09:24:19.339Z,13.89
2022-12-11T09:25:21.143Z,13.84
2022-12-11T09:26:23.142Z,13.53
2022-12-11T09:27:24.930Z,13.11
2022-12-11T09:28:26.648Z,13.13
2022-12-11T09:29:28.504Z,13.21
2022-12-11T09:30:30.317Z,13.22
2022-12-11T09:31:32.068Z,12.18
2022-12-11T09:32:34.064Z,13.19
2022-12-11T09:33:35.852Z,13.86
2022-12-11T09:34:37.692Z,13.51
2022-12-11T09:35:39.498Z,13.21
2022-12-11T09:36:41.585Z,12.86
2022-12-11T09:37:43.394Z,13.68
2022-12-11T09:38:45.191Z,13.17
2022-12-11T09:39:47.065Z,12.48
2022-12-11T09:40:49.167Z,12.35
2022-12-11T09:41:50.978Z,13.20
2022-12-11T09:42:52.869Z,12.13
2022-12-11T09:43:54.687Z,12.03
2022-12-11T09:44:56.527Z,13.34
2022-12-11T09:45:58.523Z,14.66
2022-12-11T09:47:00.579Z,14.28
2022-12-11T09:48:02.460Z,14.15
2022-12-11T09:49:04.280Z,13.51
2022-12-11T09:50:06.339Z,13.79
2022-12-11T09:51:08.115Z,13.90
2022-12-11T09:52:09.926Z,14.15
2022-12-11T09:53:11.725Z,14.56
2022-12-11T09:54:13.602Z,14.59
2022-12-11T09:55:15.429Z,14.66
2022-12-11T09:56:17.315Z,14.75
2022-12-11T09:57:19.123Z,17.03
2022-12-11T09:58:20.925Z,13.85
2022-12-11T09:59:22.734Z,12.25
2022-12-11T10:00:24.659Z,12.79
2022-12-11T10:01:26.526Z,12.13
2022-12-11T10:02:28.351Z,12.48
2022-12-11T10:03:30.158Z,14.21
2022-12-11T10:04:31.965Z,12.71
2022-12-11T10:05:33.810Z,13.69
2022-12-11T10:06:35.923Z,16.55
2022-12-11T10:07:37.722Z,15.81
2022-12-11T10:08:39.558Z,13.42
2022-12-11T10:09:41.350Z,14.24
2022-12-11T10:10:43.202Z,13.23
2022-12-11T10:11:45.001Z,13.15
2022-12-11T10:12:46.790Z,13.22
2022-12-11T10:13:48.614Z,12.93
2022-12-11T10:14:53.330Z,12.42
2022-12-11T10:15:55.200Z,13.39
2022-12-11T10:16:57.579Z,13.80
2022-12-11T10:18:04.631Z,12.88
2022-12-11T10:19:03.037Z,12.06
2022-12-11T10:20:05.153Z,12.59
2022-12-11T10:21:06.996Z,11.93
2022-12-11T10:22:08.787Z,12.08
2022-12-11T10:23:10.584Z,12.29
2022-12-11T10:24:12.403Z,12.06
2022-12-11T10:25:14.205Z,12.41
2022-12-11T10:26:16.080Z,11.99
2022-12-11T10:27:17.878Z,12.30
2022-12-11T10:28:19.686Z,10.99
2022-12-11T10:29:21.497Z,11.18
2022-12-11T10:30:23.484Z,11.64
2022-12-11T10:31:25.399Z,10.74
2022-12-11T10:32:27.140Z,10.96
2022-12-11T10:33:28.929Z,11.41
2022-12-11T10:34:30.755Z,11.27
2022-12-11T10:35:32.562Z,10.29
2022-12-11T10:36:34.409Z,10.98
2022-12-11T10:37:36.201Z,11.40
2022-12-11T10:38:38.006Z,11.24
2022-12-11T10:39:39.801Z,10.79
2022-12-11T10:40:41.718Z,11.53
2022-12-11T10:41:44.535Z,11.20
2022-12-11T10:42:46.385Z,11.06
2022-12-11T10:43:48.170Z,10.90
2022-12-11T10:44:49.973Z,11.88
2022-12-11T10:45:51.778Z,11.02
2022-12-11T10:46:53.811Z,11.43
2022-12-11T10:47:55.582Z,13.05
2022-12-11T10:48:57.365Z,11.11
2022-12-11T10:49:59.176Z,11.18
2022-12-11T10:51:01.107Z,11.48
2022-12-11T10:52:02.948Z,11.03
2022-12-11T10:53:04.735Z,10.25
2022-12-11T10:54:07.414Z,10.87
2022-12-11T10:55:09.732Z,10.75
2022-12-11T10:56:12.990Z,11.18
2022-12-11T10:57:16.618Z,11.16
2022-12-11T10:58:26.421Z,9.97
2022-12-11T10:59:32.845Z,10.24
2022-12-11T11:00:39.152Z,10.34
2022-12-11T11:01:41.038Z,9.91
2022-12-11T11:02:45.576Z,11.76
2022-12-11T11:03:47.347Z,11.11
2022-12-11T11:04:50.947Z,11.61
2022-12-11T11:05:52.852Z,12.17
2022-12-11T11:06:54.842Z,10.68
2022-12-11T11:07:56.694Z,10.76
2022-12-11T11:08:58.487Z,10.48
2022-12-11T11:10:00.300Z,11.65
2022-12-11T11:11:02.106Z,12.46
2022-12-11T11:12:07.816Z,11.49
2022-12-11T11:13:07.550Z,11.59
2022-12-11T11:14:09.329Z,11.06
2022-12-11T11:15:11.394Z,11.36
2022-12-11T11:16:13.583Z,11.27
2022-12-11T11:17:15.485Z,11.09
2022-12-11T11:18:17.303Z,12.45
2022-12-11T11:19:19.086Z,13.84
2022-12-11T11:20:21.009Z,12.30
2022-12-11T11:21:22.926Z,11.86
2022-12-11T11:22:24.725Z,10.73
2022-12-11T11:23:26.574Z,10.69
2022-12-11T11:24:28.381Z,11.05
2022-12-11T11:25:30.207Z,10.53
2022-12-11T11:27:04.257Z,10.09
2022-12-11T11:27:35.731Z,10.85
2022-12-11T11:28:37.596Z,11.03
2022-12-11T11:29:39.399Z,10.87
2022-12-11T11:30:41.218Z,10.00
2022-12-11T11:31:43.097Z,10.00
2022-12-11T11:32:44.849Z,10.50
2022-12-11T11:33:46.702Z,10.31
2022-12-11T11:34:48.512Z,10.09
2022-12-11T11:35:50.301Z,11.63
2022-12-11T11:36:52.502Z,11.07
2022-12-11T11:37:54.304Z,11.23
2022-12-11T11:38:56.163Z,10.54
2022-12-11T11:39:57.989Z,10.05
2022-12-11T11:41:05.653Z,10.63
2022-12-11T11:42:03.813Z,10.89
2022-12-11T11:43:05.618Z,10.56
2022-12-11T11:44:07.452Z,10.55
2022-12-11T11:45:09.708Z,11.06
2022-12-11T11:46:11.735Z,10.23
2022-12-11T11:47:13.484Z,11.09
2022-12-11T11:48:15.295Z,11.15
2022-12-11T11:49:17.154Z,11.09
2022-12-11T11:50:19.054Z,12.47
2022-12-11T11:51:20.859Z,11.41
2022-12-11T11:52:22.864Z,10.56
2022-12-11T11:53:24.663Z,10.55
2022-12-11T11:54:26.515Z,10.83
2022-12-11T11:55:28.319Z,10.63
2022-12-11T11:56:30.233Z,10.73
2022-12-11T11:57:32.046Z,11.06
2022-12-11T11:58:33.858Z,11.22
2022-12-11T11:59:35.708Z,10.01
2022-12-11T12:00:37.722Z,10.55
2022-12-11T12:01:39.520Z,13.82
2022-12-11T12:02:41.376Z,15.57
2022-12-11T12:03:43.132Z,17.49
2022-12-11T12:04:44.988Z,14.99
2022-12-11T12:05:46.792Z,14.15
2022-12-11T12:06:50.919Z,12.86
2022-12-11T12:07:52.242Z,12.85
2022-12-11T12:08:54.016Z,15.02
2022-12-11T12:09:55.903Z,17.63
2022-12-11T12:10:57.818Z,18.50
2022-12-11T12:11:59.633Z,15.65
2022-12-11T12:13:01.459Z,16.57
2022-12-11T12:14:03.448Z,12.89
2022-12-11T12:15:06.931Z,12.12
2022-12-11T12:16:29.218Z,12.42
2022-12-11T12:17:12.701Z,11.93
2022-12-11T12:18:14.562Z,11.59
2022-12-11T12:19:16.389Z,11.72
2022-12-11T12:20:18.529Z,11.93
2022-12-11T12:21:20.347Z,10.92
2022-12-11T12:22:22.362Z,13.61
2022-12-11T12:23:24.319Z,13.51
2022-12-11T12:24:26.128Z,11.27
2022-12-11T12:25:28.009Z,11.55
2022-12-11T12:26:30.023Z,12.15
2022-12-11T12:28:35.491Z,13.71
2022-12-11T12:29:37.290Z,14.76
2022-12-11T12:30:39.145Z,14.42
2022-12-11T12:31:41.071Z,12.53
2022-12-11T12:32:42.909Z,12.47
2022-12-11T12:33:44.716Z,12.47
2022-12-11T12:34:46.523Z,12.05
2022-12-11T12:35:48.374Z,11.76
2022-12-11T12:36:50.267Z,11.28
2022-12-11T12:37:52.076Z,11.59
2022-12-11T12:38:53.929Z,11.20
2022-12-11T12:39:55.737Z,12.42
2022-12-11T12:40:57.687Z,11.40
2022-12-11T12:42:05.604Z,12.57
2022-12-11T12:43:03.114Z,12.71
2022-12-11T12:44:04.965Z,13.32
2022-12-11T12:45:06.823Z,12.54
2022-12-11T12:46:09.637Z,13.23
2022-12-11T12:47:11.376Z,13.28
2022-12-11T12:48:13.190Z,12.48
2022-12-11T12:49:15.005Z,14.86
2022-12-11T12:50:16.819Z,14.75
2022-12-11T12:51:18.661Z,12.50
2022-12-11T12:52:20.475Z,11.95
2022-12-11T12:53:22.278Z,10.89
2022-12-11T12:54:24.115Z,12.49
2022-12-11T12:55:25.937Z,12.47
2022-12-11T12:56:27.904Z,11.30
2022-12-11T12:57:29.677Z,11.85
2022-12-11T12:58:31.494Z,11.09
2022-12-11T12:59:33.337Z,10.95
2022-12-11T13:00:35.253Z,10.61
2022-12-11T13:01:37.118Z,10.66
2022-12-11T13:02:38.891Z,11.46
2022-12-11T13:03:40.708Z,11.27
2022-12-11T13:04:57.880Z,11.54
2022-12-11T13:05:46.131Z,11.71
2022-12-11T13:06:47.969Z,12.11
2022-12-11T13:07:53.963Z,10.86
2022-12-11T13:08:53.394Z,11.67
2022-12-11T13:09:55.222Z,11.38
2022-12-11T13:10:57.144Z,11.65
2022-12-11T13:11:58.983Z,11.83
2022-12-11T13:13:00.767Z,10.70
2022-12-11T13:14:02.594Z,11.07
2022-12-11T13:15:04.410Z,12.52
2022-12-11T13:16:06.529Z,11.36
2022-12-11T13:17:08.368Z,10.56
2022-12-11T13:18:10.167Z,11.20
2022-12-11T13:19:11.983Z,10.96